createdAt,value
2023-02-16T00:00:26.835Z,22.75
2023-02-16T00:02:54.084Z,20.80
2023-02-16T00:05:31.012Z,20.52
2023-02-16T00:07:59.385Z,16.05
2023-02-16T00:10:32.732Z,19.35
2023-02-16T00:13:18.524Z,18.60
2023-02-16T00:15:45.608Z,17.73
2023-02-16T00:18:21.506Z,16.95
2023-02-16T00:20:49.565Z,16.30
2023-02-16T00:23:16.487Z,17.95
2023-02-16T00:25:43.583Z,18.90
2023-02-16T00:28:19.232Z,20.88
2023-02-16T00:30:47.228Z,18.13
2023-02-16T00:33:17.844Z,22.05
2023-02-16T00:35:45.198Z,21.52
2023-02-16T00:38:13.155Z,23.40
2023-02-16T00:40:41.563Z,21.15
2023-02-16T00:43:13.596Z,25.23
2023-02-16T00:45:40.521Z,22.05
2023-02-16T00:48:09.530Z,25.15
2023-02-16T00:50:36.459Z,23.48
2023-02-16T00:53:03.471Z,24.42
2023-02-16T00:55:36.333Z,23.85
2023-02-16T00:58:13.217Z,21.83
2023-02-16T01:00:56.069Z,21.92
2023-02-16T01:03:27.141Z,23.50
2023-02-16T01:09:00.418Z,20.85
2023-02-16T01:11:27.593Z,21.10
2023-02-16T01:13:56.020Z,23.70
2023-02-16T01:16:51.830Z,21.73
2023-02-16T01:19:20.120Z,19.13
2023-02-16T01:21:47.325Z,18.30
2023-02-16T01:24:14.850Z,19.40
2023-02-16T01:26:48.897Z,17.92
2023-02-16T01:29:20.045Z,17.27
2023-02-16T01:31:50.003Z,17.55
2023-02-16T01:34:17.121Z,16.10
2023-02-16T01:36:47.409Z,15.27
2023-02-16T01:44:55.213Z,16.48
2023-02-16T01:47:49.564Z,17.17
2023-02-16T01:50:32.066Z,16.77
2023-02-16T01:53:12.521Z,15.00
2023-02-16T01:55:46.954Z,14.00
2023-02-16T01:58:39.692Z,15.25
2023-02-16T02:01:36.000Z,15.52
2023-02-16T02:04:57.741Z,16.58
2023-02-16T02:07:37.825Z,15.10
2023-02-16T02:10:55.536Z,16.42
2023-02-16T02:13:45.132Z,16.17
2023-02-16T02:16:16.405Z,15.18
2023-02-16T02:18:44.915Z,16.23
2023-02-16T02:21:47.465Z,19.20
2023-02-16T02:24:35.453Z,15.90
2023-02-16T02:27:26.728Z,16.42
2023-02-16T02:30:18.813Z,15.05
2023-02-16T02:33:04.792Z,14.10
2023-02-16T02:35:57.507Z,16.63
2023-02-16T02:38:55.198Z,16.85
2023-02-16T02:41:54.139Z,16.90
2023-02-16T02:44:24.410Z,18.13
2023-02-16T02:46:51.680Z,22.02
2023-02-16T02:49:19.606Z,19.95
2023-02-16T02:51:47.823Z,17.08
2023-02-16T02:54:38.199Z,16.85
2023-02-16T02:57:38.662Z,17.95
2023-02-16T03:00:31.232Z,17.52
2023-02-16T03:03:06.284Z,17.70
2023-02-16T03:05:36.167Z,18.67
2023-02-16T03:08:17.375Z,17.85
2023-02-16T03:14:03.396Z,14.68
2023-02-16T03:16:39.024Z,18.88
2023-02-16T03:19:27.632Z,16.23
2023-02-16T03:22:15.700Z,18.63
2023-02-16T03:25:01.447Z,20.00
2023-02-16T03:28:01.292Z,17.77
2023-02-16T03:30:29.855Z,19.40
2023-02-16T03:32:56.891Z,20.48
2023-02-16T03:35:24.569Z,19.25
2023-02-16T03:37:51.668Z,20.23
2023-02-16T03:40:30.867Z,20.75
2023-02-16T03:43:04.263Z,23.38
2023-02-16T03:45:38.343Z,19.33
2023-02-16T03:48:06.220Z,18.65
2023-02-16T03:50:33.630Z,21.05
2023-02-16T03:53:09.247Z,17.88
2023-02-16T03:55:43.359Z,19.75
2023-02-16T03:58:14.496Z,17.48
2023-02-16T04:03:09.113Z,14.55
2023-02-16T04:05:36.974Z,16.58
2023-02-16T04:08:04.651Z,17.55
2023-02-16T04:10:31.889Z,18.25
2023-02-16T04:12:58.899Z,16.58
2023-02-16T04:15:28.796Z,14.88
2023-02-16T04:17:56.313Z,20.33
2023-02-16T04:20:30.543Z,17.15
2023-02-16T04:22:57.854Z,17.17
2023-02-16T04:25:25.605Z,17.92
2023-02-16T04:27:53.301Z,18.40
2023-02-16T04:30:24.473Z,18.63
2023-02-16T04:32:51.835Z,20.25
2023-02-16T04:35:19.924Z,18.77
2023-02-16T04:37:46.936Z,18.20
2023-02-16T04:40:16.821Z,19.60
2023-02-16T04:42:45.290Z,19.75
2023-02-16T04:45:13.082Z,19.90
2023-02-16T04:47:40.424Z,20.35
2023-02-16T04:50:08.501Z,18.98
2023-02-16T04:52:37.616Z,17.13
2023-02-16T04:55:07.219Z,19.05
2023-02-16T04:57:34.207Z,21.13
2023-02-16T05:00:01.177Z,23.75
2023-02-16T05:02:28.279Z,20.55
2023-02-16T05:04:55.219Z,20.70
2023-02-16T05:07:22.181Z,21.88
2023-02-16T05:09:49.175Z,22.63
2023-02-16T05:12:34.704Z,19.35
2023-02-16T05:15:01.686Z,19.80
2023-02-16T05:17:29.631Z,21.55
2023-02-16T05:19:59.192Z,19.52
2023-02-16T05:22:28.854Z,20.73
2023-02-16T05:24:55.835Z,28.38
2023-02-16T05:27:26.540Z,20.67
2023-02-16T05:29:53.703Z,25.38
2023-02-16T05:32:21.521Z,18.15
2023-02-16T05:34:48.550Z,21.70
2023-02-16T05:37:17.547Z,25.20
2023-02-16T05:39:45.884Z,22.17
2023-02-16T05:42:13.338Z,24.00
2023-02-16T05:44:40.256Z,18.13
2023-02-16T05:47:07.572Z,19.73
2023-02-16T05:49:34.585Z,19.55
2023-02-16T05:52:02.454Z,20.65
2023-02-16T05:54:29.701Z,19.90
2023-02-16T05:56:56.771Z,21.27
2023-02-16T05:59:24.007Z,25.10
2023-02-16T06:01:52.394Z,25.88
2023-02-16T06:04:21.428Z,21.95
2023-02-16T06:06:48.855Z,22.88
2023-02-16T06:09:16.158Z,21.67
2023-02-16T06:11:43.484Z,22.02
2023-02-16T06:14:19.956Z,19.92
2023-02-16T06:16:50.000Z,24.15
2023-02-16T06:19:19.202Z,22.13
2023-02-16T06:21:46.962Z,25.25
2023-02-16T06:24:14.638Z,20.85
2023-02-16T06:26:42.073Z,23.30
2023-02-16T06:29:10.191Z,23.10
2023-02-16T06:31:37.358Z,22.98
2023-02-16T06:34:05.246Z,21.77
2023-02-16T06:36:33.186Z,24.33
2023-02-16T06:39:00.274Z,18.73
2023-02-16T06:41:37.679Z,19.90
2023-02-16T06:44:08.951Z,22.42
2023-02-16T06:46:35.993Z,26.23
2023-02-16T06:49:22.100Z,19.63
2023-02-16T06:52:04.618Z,19.05
2023-02-16T06:54:31.573Z,23.05
2023-02-16T06:56:58.508Z,21.77
2023-02-16T06:59:25.520Z,22.02
2023-02-16T07:01:52.433Z,23.08
2023-02-16T07:04:19.439Z,26.35
2023-02-16T07:07:04.890Z,25.85
2023-02-16T07:09:51.126Z,21.70
2023-02-16T07:12:36.568Z,22.17
2023-02-16T07:15:23.054Z,23.25
2023-02-16T07:17:50.021Z,26.75
2023-02-16T07:20:18.418Z,23.27
2023-02-16T07:22:45.364Z,26.15
2023-02-16T07:25:12.284Z,27.15
2023-02-16T07:27:39.205Z,24.80
2023-02-16T07:30:08.794Z,30.25
2023-02-16T07:32:35.750Z,23.92
2023-02-16T07:35:02.772Z,23.15
2023-02-16T07:37:29.869Z,25.00
2023-02-16T07:39:57.424Z,22.90
2023-02-16T07:42:24.364Z,30.85
2023-02-16T07:44:52.206Z,26.20
2023-02-16T07:47:19.120Z,25.08
2023-02-16T07:49:46.186Z,24.58
2023-02-16T07:52:13.226Z,26.05
2023-02-16T07:54:40.240Z,28.13
2023-02-16T07:57:07.637Z,28.38
2023-02-16T07:59:34.647Z,29.55
2023-02-16T08:02:01.709Z,30.30
2023-02-16T08:04:28.692Z,25.50
2023-02-16T08:06:55.593Z,35.65
2023-02-16T08:09:22.556Z,27.50
2023-02-16T08:11:49.497Z,26.67
2023-02-16T08:14:16.551Z,25.05
2023-02-16T08:16:43.622Z,28.00
2023-02-16T08:19:13.038Z,29.63
2023-02-16T08:21:40.274Z,28.08
2023-02-16T08:24:08.752Z,24.48
2023-02-16T08:26:39.852Z,28.50
2023-02-16T08:31:38.119Z,20.83
2023-02-16T08:34:06.067Z,23.88
2023-02-16T08:36:38.379Z,25.88
2023-02-16T08:39:15.186Z,27.80
2023-02-16T08:41:44.602Z,24.38
2023-02-16T08:44:13.166Z,27.52
2023-02-16T08:46:43.775Z,24.60
2023-02-16T08:49:12.538Z,23.70
2023-02-16T08:51:46.229Z,30.63
2023-02-16T08:54:24.267Z,23.70
2023-02-16T08:56:51.187Z,26.17
2023-02-16T08:59:20.762Z,24.35
2023-02-16T09:01:48.533Z,22.63
2023-02-16T09:04:18.986Z,24.88
2023-02-16T09:06:48.313Z,24.30
2023-02-16T09:09:15.891Z,25.73
2023-02-16T09:11:42.846Z,23.33
2023-02-16T09:14:10.432Z,23.45
2023-02-16T09:16:39.787Z,23.13
2023-02-16T09:19:07.193Z,23.88
2023-02-16T09:21:34.297Z,21.42
2023-02-16T09:24:04.471Z,21.65
2023-02-16T09:26:35.068Z,24.57
2023-02-16T09:29:03.487Z,22.20
2023-02-16T09:31:35.252Z,21.90
2023-02-16T09:34:13.996Z,21.50
2023-02-16T09:36:41.383Z,20.15
2023-02-16T09:39:08.355Z,18.77
2023-02-16T09:41:56.646Z,20.65
2023-02-16T09:44:33.385Z,22.50
2023-02-16T09:47:04.853Z,17.92
2023-02-16T09:49:45.016Z,20.67
2023-02-16T09:52:42.328Z,21.02
2023-02-16T09:55:18.501Z,19.98
2023-02-16T09:58:16.731Z,20.63
2023-02-16T10:00:57.894Z,17.67
2023-02-16T10:06:14.141Z,16.17
2023-02-16T10:08:47.760Z,17.13
2023-02-16T10:11:46.486Z,17.92
2023-02-16T10:14:43.660Z,18.00
2023-02-16T10:17:33.361Z,19.48
2023-02-16T10:20:41.815Z,17.10
2023-02-16T10:23:46.485Z,18.98
2023-02-16T10:26:20.801Z,19.50
2023-02-16T10:28:58.741Z,18.83
2023-02-16T10:31:43.503Z,18.13
2023-02-16T10:34:56.032Z,16.45
2023-02-16T10:37:49.024Z,16.98
2023-02-16T10:40:25.883Z,16.50
2023-02-16T10:43:05.476Z,22.02
2023-02-16T10:45:56.430Z,16.27
2023-02-16T10:48:24.611Z,15.68
2023-02-16T10:51:16.606Z,16.38
2023-02-16T10:54:00.472Z,17.83
2023-02-16T10:56:59.416Z,18.52
2023-02-16T10:59:46.023Z,14.02
2023-02-16T11:02:36.510Z,14.85
2023-02-16T11:05:26.183Z,15.15
2023-02-16T11:08:01.414Z,16.92
2023-02-16T11:10:50.344Z,16.60
2023-02-16T11:13:34.202Z,13.80
2023-02-16T11:16:13.779Z,17.02
2023-02-16T11:18:45.545Z,15.18
2023-02-16T11:21:13.274Z,13.63
2023-02-16T11:23:42.976Z,14.15
2023-02-16T11:26:10.089Z,15.98
2023-02-16T11:28:44.630Z,14.57
2023-02-16T11:31:36.204Z,12.45
2023-02-16T11:34:14.051Z,14.93
2023-02-16T11:36:44.211Z,15.00
2023-02-16T11:39:14.213Z,12.90
2023-02-16T11:41:53.707Z,14.68
2023-02-16T11:44:43.360Z,11.70
2023-02-16T11:47:37.515Z,12.77
2023-02-16T11:50:29.189Z,10.75
2023-02-16T11:53:10.004Z,14.00
2023-02-16T11:55:41.738Z,14.40
2023-02-16T11:58:19.490Z,11.98
2023-02-16T12:01:10.046Z,13.80
2023-02-16T12:04:06.240Z,13.48
2023-02-16T12:06:57.523Z,13.18
2023-02-16T12:09:50.961Z,13.15
2023-02-16T12:12:45.201Z,9.93
2023-02-16T12:15:39.505Z,12.40
2023-02-16T12:18:32.349Z,11.13
2023-02-16T12:21:06.884Z,11.73
2023-02-16T12:24:23.172Z,10.50
2023-02-16T12:27:12.538Z,10.05
2023-02-16T12:29:59.168Z,11.32
2023-02-16T12:33:00.979Z,11.25
2023-02-16T12:36:27.230Z,12.23
2023-02-16T12:38:59.776Z,9.77
2023-02-16T12:42:08.292Z,13.27
2023-02-16T12:44:59.393Z,9.75
2023-02-16T12:50:27.621Z,8.15
2023-02-16T12:53:04.156Z,12.07
2023-02-16T12:55:45.746Z,9.45
2023-02-16T12:58:41.838Z,9.95
2023-02-16T13:01:23.626Z,8.50
2023-02-16T13:04:38.645Z,8.07
2023-02-16T13:07:20.890Z,8.07
2023-02-16T13:10:04.553Z,7.18
2023-02-16T13:12:51.936Z,5.95
2023-02-16T13:15:43.780Z,6.47
2023-02-16T13:18:35.925Z,6.60
2023-02-16T13:21:11.028Z,7.63
2023-02-16T13:24:07.886Z,12.30
2023-02-16T13:27:06.127Z,7.05
2023-02-16T13:30:20.635Z,7.22
2023-02-16T13:32:56.712Z,7.28
2023-02-16T13:36:10.864Z,6.47
2023-02-16T13:39:09.705Z,6.70
2023-02-16T13:42:12.300Z,6.78
2023-02-16T13:44:54.346Z,10.30
2023-02-16T13:47:30.518Z,6.32
2023-02-16T13:50:03.867Z,8.05
2023-02-16T13:52:36.919Z,6.97
2023-02-16T13:55:21.478Z,7.60
2023-02-16T13:57:50.881Z,6.72
2023-02-16T14:00:47.735Z,5.65
2023-02-16T14:03:17.638Z,9.75
2023-02-16T14:05:48.701Z,6.00
2023-02-16T14:08:24.520Z,7.55
2023-02-16T14:10:54.119Z,6.63
2023-02-16T14:13:39.336Z,5.47
2023-02-16T14:16:27.864Z,5.70
2023-02-16T14:19:02.385Z,7.03
2023-02-16T14:21:44.030Z,10.50
2023-02-16T14:24:35.650Z,6.43
2023-02-16T14:27:09.428Z,6.07
2023-02-16T14:30:03.281Z,7.18
2023-02-16T14:32:38.441Z,6.70
2023-02-16T14:35:23.914Z,7.45
2023-02-16T14:37:58.954Z,8.82
2023-02-16T14:40:34.836Z,6.80
2023-02-16T14:43:31.447Z,7.97
2023-02-16T14:46:25.897Z,6.72
2023-02-16T14:49:25.738Z,6.15
2023-02-16T14:52:39.564Z,6.60
2023-02-16T14:55:56.940Z,7.13
2023-02-16T14:58:35.813Z,7.07
2023-02-16T15:01:13.547Z,5.25
2023-02-16T15:03:58.008Z,6.90
2023-02-16T15:06:47.505Z,7.30
2023-02-16T15:09:27.765Z,6.70
2023-02-16T15:12:18.057Z,7.03
2023-02-16T15:14:51.581Z,5.68
2023-02-16T15:17:48.477Z,6.75
2023-02-16T15:20:21.548Z,5.28
2023-02-16T15:23:16.957Z,6.47
2023-02-16T15:26:00.899Z,6.53
2023-02-16T15:28:34.148Z,5.65
2023-02-16T15:31:17.924Z,7.38
2023-02-16T15:33:56.709Z,9.35
2023-02-16T15:36:36.427Z,4.78
2023-02-16T15:39:13.508Z,4.65
2023-02-16T15:41:48.479Z,5.70
2023-02-16T15:44:34.171Z,5.57
2023-02-16T15:47:13.948Z,6.32
2023-02-16T15:49:41.627Z,4.30
2023-02-16T15:52:16.139Z,5.40
2023-02-16T15:54:44.151Z,5.90
2023-02-16T15:57:36.626Z,4.90
2023-02-16T16:00:20.622Z,5.75
2023-02-16T16:02:58.294Z,6.32
2023-02-16T16:05:32.985Z,7.85
2023-02-16T16:08:01.446Z,8.45
2023-02-16T16:10:39.605Z,7.10
2023-02-16T16:13:26.470Z,4.57
2023-02-16T16:16:01.469Z,6.35
2023-02-16T16:18:39.386Z,5.47
2023-02-16T16:21:19.561Z,7.70
2023-02-16T16:24:18.707Z,7.53
2023-02-16T16:26:55.635Z,6.72
2023-02-16T16:29:49.036Z,5.57
2023-02-16T16:32:29.802Z,8.05
2023-02-16T16:34:57.000Z,7.88
2023-02-16T16:37:35.635Z,6.53
2023-02-16T16:40:26.354Z,6.32
2023-02-16T16:43:02.323Z,6.45
2023-02-16T16:45:52.050Z,7.28
2023-02-16T16:48:37.243Z,7.63
2023-02-16T16:51:39.435Z,8.70
2023-02-16T16:54:30.635Z,6.43
2023-02-16T16:56:57.696Z,9.52
2023-02-16T16:59:24.639Z,7.68
2023-02-16T17:01:52.769Z,8.13
2023-02-16T17:04:21.968Z,8.88
2023-02-16T17:06:49.128Z,9.52
2023-02-16T17:09:16.955Z,8.52
2023-02-16T17:11:44.050Z,8.35
2023-02-16T17:14:17.140Z,7.57
2023-02-16T17:16:53.108Z,7.60
2023-02-16T17:19:22.950Z,8.50
2023-02-16T17:21:49.986Z,8.68
2023-02-16T17:24:17.377Z,6.80
2023-02-16T17:26:44.368Z,6.70
2023-02-16T17:29:11.330Z,7.90
2023-02-16T17:31:38.349Z,7.63
2023-02-16T17:34:05.280Z,5.75
2023-02-16T17:36:32.434Z,7.78
2023-02-16T17:38:59.391Z,9.38
2023-02-16T17:41:29.156Z,9.57
2023-02-16T17:43:56.154Z,8.80
2023-02-16T17:46:23.831Z,9.68
2023-02-16T17:48:53.860Z,10.43
2023-02-16T17:51:24.368Z,7.13
2023-02-16T17:53:53.330Z,8.18
2023-02-16T17:56:23.011Z,7.53
2023-02-16T17:58:51.107Z,7.45
2023-02-16T18:01:19.444Z,9.38
2023-02-16T18:03:46.752Z,12.25
2023-02-16T18:06:20.126Z,9.10
2023-02-16T18:08:47.516Z,9.13
2023-02-16T18:11:14.472Z,10.05
2023-02-16T18:13:41.401Z,10.80
2023-02-16T18:16:10.479Z,9.45
2023-02-16T18:18:39.212Z,8.70
2023-02-16T18:21:06.839Z,8.02
2023-02-16T18:23:34.947Z,8.18
2023-02-16T18:26:03.631Z,11.15
2023-02-16T18:28:33.664Z,9.70
2023-02-16T18:31:04.552Z,10.25
2023-02-16T18:35:58.962Z,9.80
2023-02-16T18:38:26.133Z,10.18
2023-02-16T18:40:54.682Z,11.35
2023-02-16T18:43:23.128Z,12.00
2023-02-16T18:45:50.635Z,9.82
2023-02-16T18:48:17.684Z,10.90
2023-02-16T18:50:44.791Z,12.73
2023-02-16T18:53:11.887Z,12.52
2023-02-16T18:55:39.052Z,8.55
2023-02-16T18:58:08.318Z,10.43
2023-02-16T19:00:36.637Z,9.93
2023-02-16T19:03:04.373Z,10.35
2023-02-16T19:05:32.243Z,12.18
2023-02-16T19:07:59.629Z,10.63
2023-02-16T19:10:27.472Z,11.90
2023-02-16T19:12:54.392Z,10.50
2023-02-16T19:15:21.413Z,12.30
2023-02-16T19:17:48.644Z,12.90
2023-02-16T19:20:18.384Z,11.88
2023-02-16T19:22:49.309Z,11.07
2023-02-16T19:27:44.769Z,9.43
2023-02-16T19:30:12.948Z,9.20
2023-02-16T19:32:41.113Z,7.07
2023-02-16T19:35:12.071Z,12.73
2023-02-16T19:37:39.297Z,8.52
2023-02-16T19:40:09.035Z,12.35
2023-02-16T19:42:37.187Z,9.73
2023-02-16T19:45:04.783Z,11.13
2023-02-16T19:47:31.819Z,10.13
2023-02-16T19:49:58.740Z,9.43
2023-02-16T19:52:25.867Z,12.43
2023-02-16T19:54:52.809Z,10.80
2023-02-16T19:57:20.222Z,12.65
2023-02-16T19:59:47.187Z,10.90
2023-02-16T20:02:15.433Z,12.18
2023-02-16T20:04:44.554Z,11.48
2023-02-16T20:07:11.587Z,11.02
2023-02-16T20:09:38.825Z,15.90
2023-02-16T20:12:06.498Z,11.82
2023-02-16T20:14:33.768Z,16.20
2023-02-16T20:17:00.768Z,17.13
2023-02-16T20:19:27.737Z,14.73
2023-02-16T20:21:54.764Z,14.48
2023-02-16T20:24:21.815Z,13.60
2023-02-16T20:26:51.227Z,10.85
2023-02-16T20:29:18.260Z,13.38
2023-02-16T20:31:55.649Z,13.18
2023-02-16T20:34:25.806Z,13.30
2023-02-16T20:36:53.853Z,14.20
2023-02-16T20:39:22.122Z,13.07
2023-02-16T20:41:49.616Z,8.57
2023-02-16T20:44:17.132Z,13.98
2023-02-16T20:46:44.615Z,9.57
2023-02-16T20:49:13.343Z,11.43
2023-02-16T20:51:41.352Z,12.15
2023-02-16T20:54:08.987Z,14.57
2023-02-16T20:56:36.318Z,17.77
2023-02-16T20:59:04.466Z,28.50
2023-02-16T21:01:46.415Z,16.15
2023-02-16T21:04:17.721Z,12.35
2023-02-16T21:06:45.165Z,13.40
2023-02-16T21:09:12.253Z,10.55
2023-02-16T21:11:39.894Z,10.73
2023-02-16T21:14:08.652Z,11.38
2023-02-16T21:16:36.586Z,10.55
2023-02-16T21:19:09.296Z,10.60
2023-02-16T21:21:44.235Z,9.55
2023-02-16T21:24:11.299Z,10.27
2023-02-16T21:26:38.261Z,9.65
2023-02-16T21:29:05.369Z,10.30
2023-02-16T21:31:32.513Z,9.98
2023-02-16T21:33:59.615Z,10.48
2023-02-16T21:36:27.431Z,9.13
2023-02-16T21:38:54.819Z,12.23
2023-02-16T21:41:27.660Z,9.57
2023-02-16T21:44:00.934Z,8.55
2023-02-16T21:46:37.280Z,8.05
2023-02-16T21:49:07.338Z,12.63
2023-02-16T21:51:37.495Z,10.87
2023-02-16T21:54:13.117Z,9.13
2023-02-16T21:56:52.846Z,7.47
2023-02-16T21:59:22.582Z,8.90
2023-02-16T22:01:51.561Z,9.27
2023-02-16T22:04:21.777Z,7.43
2023-02-16T22:06:50.737Z,9.60
2023-02-16T22:09:22.092Z,8.38
2023-02-16T22:11:50.306Z,7.10
2023-02-16T22:14:17.519Z,8.30
2023-02-16T22:16:46.362Z,9.52
2023-02-16T22:19:16.213Z,10.32
2023-02-16T22:21:45.298Z,9.27
2023-02-16T22:24:14.453Z,8.32
2023-02-16T22:26:41.656Z,8.80
2023-02-16T22:29:09.628Z,7.53
2023-02-16T22:31:37.425Z,10.50
2023-02-16T22:34:11.606Z,8.52
2023-02-16T22:36:38.636Z,7.45
2023-02-16T22:39:06.479Z,9.38
2023-02-16T22:41:34.634Z,7.55
2023-02-16T22:44:01.607Z,8.30
2023-02-16T22:46:30.007Z,10.52
2023-02-16T22:48:58.872Z,8.98
2023-02-16T22:51:27.974Z,10.18
2023-02-16T22:53:57.736Z,8.57
2023-02-16T22:56:26.771Z,8.18
2023-02-16T22:58:57.352Z,9.00
2023-02-16T23:03:57.238Z,6.28
2023-02-16T23:06:34.135Z,11.65
2023-02-16T23:09:08.037Z,7.97
2023-02-16T23:11:36.246Z,6.30
2023-02-16T23:14:04.087Z,6.03
2023-02-16T23:16:31.574Z,6.00
2023-02-16T23:19:00.071Z,7.03
2023-02-16T23:21:30.428Z,7.40
2023-02-16T23:23:58.899Z,6.68
2023-02-16T23:26:30.736Z,6.80
2023-02-16T23:29:01.576Z,8.18
2023-02-16T23:31:33.405Z,5.78
2023-02-16T23:34:02.615Z,7.53
2023-02-16T23:36:31.416Z,7.45
2023-02-16T23:39:04.092Z,5.38
2023-02-16T23:41:31.001Z,5.63
2023-02-16T23:44:00.038Z,8.38
2023-02-16T23:46:28.264Z,6.38
2023-02-16T23:48:55.304Z,5.68
2023-02-16T23:51:22.363Z,7.03
2023-02-16T23:53:49.877Z,6.75
2023-02-16T23:56:21.447Z,7.90
2023-02-16T23:58:49.573Z,6.10
